Time;durP1;ratioP1;P1;durP2;ratioP2;P2;SDS_P1;SDS_P2;PMS_P1;PMS_P2;Temp;Humidity;BMP_temperature;BMP_pressure;BME280_temperature;BME280_humidity;BME280_pressure;Samples;Min_cycle;Max_cycle;Signal;HPM_P1;HPM_P2
2023/09/08 00:02:17;;;;;;;;;;;17.80;85.30;;;;;;4132419;28;19934;-84
2023/09/08 00:04:36;;;;;;;;;;;17.80;85.60;;;;;;4128529;28;20283;-83
2023/09/08 00:06:56;;;;;;;;;;;17.80;86.00;;;;;;4135841;28;19928;-83
2023/09/08 00:09:15;;;;;;;;;;;17.80;85.80;;;;;;4130680;28;20600;-83
2023/09/08 00:11:34;;;;;;;;;;;17.80;85.50;;;;;;4126427;28;19972;-83
2023/09/08 00:13:54;;;;;;;;;;;17.80;85.40;;;;;;4130571;28;20468;-83
2023/09/08 00:16:13;;;;;;;;;;;17.80;85.30;;;;;;4128147;28;20070;-83
2023/09/08 00:18:33;;;;;;;;;;;17.80;85.10;;;;;;4126316;28;20232;-83
2023/09/08 00:20:52;;;;;;;;;;;17.70;85.00;;;;;;4127930;28;19925;-84
2023/09/08 00:23:11;;;;;;;;;;;17.70;84.90;;;;;;4135304;28;20001;-83
2023/09/08 00:25:30;;;;;;;;;;;17.70;84.90;;;;;;4127722;28;19929;-83
2023/09/08 00:27:31;;;;;;;;;;;17.70;84.80;;;;;;4128279;28;19917;-83
2023/09/08 00:29:52;;;;;;;;;;;17.80;84.80;;;;;;4129266;28;20551;-83
2023/09/08 00:31:52;;;;;;;;;;;17.70;84.50;;;;;;4127494;28;19917;-83
2023/09/08 00:33:53;;;;;;;;;;;17.70;84.80;;;;;;4125802;28;19917;-84
2023/09/08 00:35:56;;;;;;;;;;;17.70;84.50;;;;;;4128127;28;19917;-84
2023/09/08 00:37:57;;;;;;;;;;;17.70;84.60;;;;;;4141741;28;19913;-83
2023/09/08 00:39:58;;;;;;;;;;;17.70;84.60;;;;;;4146096;28;19921;-82
2023/09/08 00:41:58;;;;;;;;;;;17.70;84.90;;;;;;4133711;28;20226;-84
2023/09/08 00:43:59;;;;;;;;;;;17.70;84.50;;;;;;4132644;28;19920;-83
2023/09/08 00:46:02;;;;;;;;;;;17.70;84.40;;;;;;4128978;28;20024;-83
2023/09/08 00:48:03;;;;;;;;;;;17.60;84.20;;;;;;4126198;28;19922;-83
2023/09/08 00:50:04;;;;;;;;;;;17.60;84.10;;;;;;4125549;28;19918;-83
2023/09/08 00:52:05;;;;;;;;;;;17.60;84.10;;;;;;4129310;28;19914;-83
2023/09/08 00:54:06;;;;;;;;;;;17.60;84.10;;;;;;4116660;28;19928;-83
2023/09/08 00:56:07;;;;;;;;;;;17.60;84.00;;;;;;4130365;28;19936;-83
2023/09/08 00:58:07;;;;;;;;;;;17.60;84.40;;;;;;4122244;28;19929;-83
2023/09/08 01:00:08;;;;;;;;;;;17.60;84.10;;;;;;4127481;28;19913;-84
2023/09/08 01:02:09;;;;;;;;;;;17.60;84.20;;;;;;4126265;28;19918;-82
2023/09/08 01:04:10;;;;;;;;;;;17.70;85.00;;;;;;4123252;28;19945;-82
2023/09/08 01:06:10;;;;;;;;;;;17.60;84.10;;;;;;4128545;28;20060;-84
2023/09/08 01:08:11;;;;;;;;;;;17.60;84.10;;;;;;4127608;28;19913;-82
2023/09/08 01:10:12;;;;;;;;;;;17.60;84.20;;;;;;4130732;28;20188;-83
2023/09/08 01:12:13;;;;;;;;;;;17.60;84.10;;;;;;4123186;28;19935;-84
2023/09/08 01:14:17;;;;;;;;;;;17.60;84.10;;;;;;4125964;28;19917;-84
2023/09/08 01:16:17;;;;;;;;;;;17.50;84.30;;;;;;4123352;28;19926;-84
2023/09/08 01:18:18;;;;;;;;;;;17.60;84.40;;;;;;4126339;28;20350;-83
2023/09/08 01:20:22;;;;;;;;;;;17.50;84.20;;;;;;4122322;28;20426;-83
2023/09/08 01:22:58;;;;;;;;;;;17.50;84.30;;;;;;4119530;28;20319;-84
2023/09/08 01:25:03;;;;;;;;;;;17.50;84.30;;;;;;4110211;28;19943;-83
2023/09/08 01:27:05;;;;;;;;;;;17.50;84.30;;;;;;4107681;28;19933;-83
2023/09/08 01:29:06;;;;;;;;;;;17.50;84.30;;;;;;4093010;28;19930;-83
2023/09/08 01:31:07;;;;;;;;;;;17.50;84.30;;;;;;4110977;28;19914;-84
2023/09/08 01:33:09;;;;;;;;;;;17.50;84.30;;;;;;4096706;28;19922;-84
2023/09/08 01:35:30;;;;;;;;;;;17.50;84.20;;;;;;4111013;28;19966;-83
2023/09/08 01:37:50;;;;;;;;;;;17.50;84.20;;;;;;4104573;28;19996;-84
2023/09/08 01:40:11;;;;;;;;;;;17.40;84.10;;;;;;4108429;28;20004;-83
2023/09/08 01:42:31;;;;;;;;;;;17.40;84.10;;;;;;4109273;28;20028;-83
2023/09/08 01:44:52;;;;;;;;;;;17.40;84.10;;;;;;4112337;28;19922;-83
2023/09/08 01:46:56;;;;;;;;;;;17.40;84.00;;;;;;4094257;28;20395;-83
2023/09/08 01:49:17;;;;;;;;;;;17.40;84.00;;;;;;4108389;28;20150;-83
2023/09/08 01:51:37;;;;;;;;;;;17.40;83.90;;;;;;4109941;28;19917;-83
2023/09/08 01:53:58;;;;;;;;;;;17.40;83.90;;;;;;4111392;28;19918;-84
2023/09/08 01:56:18;;;;;;;;;;;17.40;83.90;;;;;;4113697;28;20087;-83
2023/09/08 01:58:39;;;;;;;;;;;17.40;83.90;;;;;;4114863;28;19971;-83
2023/09/08 02:01:05;;;;;;;;;;;17.30;83.70;;;;;;4129040;28;20144;-84
2023/09/08 02:03:25;;;;;;;;;;;17.30;83.70;;;;;;4141088;28;19949;-83
2023/09/08 02:05:46;;;;;;;;;;;17.20;83.70;;;;;;4144247;28;20178;-84
2023/09/08 02:08:07;;;;;;;;;;;17.20;83.60;;;;;;4147937;28;19948;-82
2023/09/08 02:10:27;;;;;;;;;;;17.20;83.60;;;;;;4128136;28;20340;-83
2023/09/08 02:12:28;;;;;;;;;;;17.20;83.50;;;;;;4128727;28;20437;-82
2023/09/08 02:14:29;;;;;;;;;;;17.10;83.40;;;;;;4123417;28;19921;-83
2023/09/08 02:16:29;;;;;;;;;;;17.10;83.30;;;;;;4127926;28;19948;-83
2023/09/08 02:18:30;;;;;;;;;;;17.10;83.30;;;;;;4130812;28;20371;-83
2023/09/08 02:20:30;;;;;;;;;;;17.10;83.30;;;;;;4125724;28;19921;-83
2023/09/08 02:22:31;;;;;;;;;;;17.10;83.20;;;;;;4127091;28;19918;-84
2023/09/08 02:24:32;;;;;;;;;;;17.00;83.20;;;;;;4126896;28;19921;-82
2023/09/08 02:26:33;;;;;;;;;;;17.00;83.20;;;;;;4129243;28;20005;-83
2023/09/08 02:28:34;;;;;;;;;;;17.00;83.20;;;;;;4123461;28;19924;-83
2023/09/08 02:30:35;;;;;;;;;;;17.00;83.20;;;;;;4123978;28;20367;-83
2023/09/08 02:32:36;;;;;;;;;;;17.00;83.20;;;;;;4127628;28;20172;-84
2023/09/08 02:34:37;;;;;;;;;;;17.00;83.20;;;;;;4131556;28;20403;-83
2023/09/08 02:36:37;;;;;;;;;;;16.90;83.00;;;;;;4125354;28;20269;-82
2023/09/08 02:38:38;;;;;;;;;;;17.00;83.10;;;;;;4125272;28;20339;-83
2023/09/08 02:40:38;;;;;;;;;;;17.00;83.20;;;;;;4128281;28;20387;-83
2023/09/08 02:42:39;;;;;;;;;;;16.90;83.00;;;;;;4124923;28;20368;-83
2023/09/08 02:44:39;;;;;;;;;;;16.90;83.10;;;;;;4128319;28;20367;-84
2023/09/08 02:46:40;;;;;;;;;;;16.90;83.20;;;;;;4127464;28;19914;-83
2023/09/08 02:48:41;;;;;;;;;;;16.90;83.20;;;;;;4125912;28;20447;-83
2023/09/08 02:50:41;;;;;;;;;;;16.90;83.20;;;;;;4130085;28;19957;-83
2023/09/08 02:52:42;;;;;;;;;;;16.80;83.10;;;;;;4128165;28;19918;-83
2023/09/08 02:54:42;;;;;;;;;;;16.80;83.10;;;;;;4121919;28;20021;-84
2023/09/08 02:56:43;;;;;;;;;;;16.70;83.00;;;;;;4138184;28;19932;-83
2023/09/08 02:58:44;;;;;;;;;;;16.80;83.00;;;;;;4126479;28;20408;-83
2023/09/08 03:00:44;;;;;;;;;;;16.80;83.00;;;;;;4118641;28;19964;-84
2023/09/08 03:02:45;;;;;;;;;;;16.70;82.90;;;;;;4132027;28;19913;-83
2023/09/08 03:04:46;;;;;;;;;;;16.70;82.90;;;;;;4128158;28;20099;-83
2023/09/08 03:06:46;;;;;;;;;;;16.70;82.90;;;;;;4126599;28;19932;-84
2023/09/08 03:08:47;;;;;;;;;;;16.60;82.90;;;;;;4132968;28;19928;-83
2023/09/08 03:10:49;;;;;;;;;;;16.60;82.80;;;;;;4134647;28;20546;-84
2023/09/08 03:12:49;;;;;;;;;;;16.60;82.80;;;;;;4130224;28;20363;-83
2023/09/08 03:14:51;;;;;;;;;;;16.60;82.80;;;;;;4128372;28;19918;-83
2023/09/08 03:17:12;;;;;;;;;;;16.70;82.80;;;;;;4128179;28;19917;-82
2023/09/08 03:19:13;;;;;;;;;;;16.60;82.90;;;;;;4129557;28;20284;-83
2023/09/08 03:21:14;;;;;;;;;;;16.60;82.80;;;;;;4126611;28;20601;-83
2023/09/08 03:23:38;;;;;;;;;;;16.60;82.80;;;;;;4124766;28;19961;-84
2023/09/08 03:25:58;;;;;;;;;;;16.60;82.70;;;;;;4129431;28;19964;-83
2023/09/08 03:28:19;;;;;;;;;;;16.50;82.60;;;;;;4128413;28;19960;-83
2023/09/08 03:30:39;;;;;;;;;;;16.50;82.70;;;;;;4134073;28;19980;-83
2023/09/08 03:33:00;;;;;;;;;;;16.50;82.60;;;;;;4151157;28;19906;-83
2023/09/08 03:35:20;;;;;;;;;;;16.50;82.60;;;;;;4131336;28;19914;-83
2023/09/08 03:37:41;;;;;;;;;;;16.50;82.70;;;;;;4129697;28;19929;-83
2023/09/08 03:40:04;;;;;;;;;;;16.50;83.00;;;;;;4129887;28;19929;-83
2023/09/08 03:42:25;;;;;;;;;;;16.30;83.00;;;;;;4124450;28;19929;-83
2023/09/08 03:44:35;;;;;;;;;;;16.40;83.10;;;;;;4130858;28;19918;-82
2023/09/08 03:46:36;;;;;;;;;;;16.50;83.10;;;;;;4132672;28;20282;-84
2023/09/08 03:48:36;;;;;;;;;;;16.50;83.20;;;;;;4130435;28;20656;-84
2023/09/08 03:50:37;;;;;;;;;;;16.40;83.00;;;;;;4131250;28;19918;-83
2023/09/08 03:52:38;;;;;;;;;;;16.40;83.00;;;;;;4126588;28;20004;-84
2023/09/08 03:54:38;;;;;;;;;;;16.40;83.10;;;;;;4123671;28;19921;-84
2023/09/08 03:56:39;;;;;;;;;;;16.40;83.00;;;;;;4130204;28;19953;-83
2023/09/08 03:58:40;;;;;;;;;;;16.30;83.00;;;;;;4131575;28;19924;-83
2023/09/08 04:00:40;;;;;;;;;;;16.40;83.00;;;;;;4110930;28;19914;-84
2023/09/08 04:02:41;;;;;;;;;;;16.30;82.90;;;;;;4125496;28;19913;-83
2023/09/08 04:04:41;;;;;;;;;;;16.40;82.90;;;;;;4128881;28;19914;-83
2023/09/08 04:06:42;;;;;;;;;;;16.40;83.00;;;;;;4126486;28;19918;-83
2023/09/08 04:08:42;;;;;;;;;;;16.30;82.90;;;;;;4125812;28;19933;-83
2023/09/08 04:10:43;;;;;;;;;;;16.40;82.90;;;;;;4129313;28;19914;-85
2023/09/08 04:12:44;;;;;;;;;;;16.30;82.90;;;;;;4118958;28;20679;-84
2023/09/08 04:14:45;;;;;;;;;;;16.30;82.90;;;;;;4105330;28;20495;-83
2023/09/08 04:16:45;;;;;;;;;;;16.30;83.00;;;;;;4123372;28;19943;-84
2023/09/08 04:18:46;;;;;;;;;;;16.30;83.00;;;;;;4126096;28;20037;-86
2023/09/08 04:20:46;;;;;;;;;;;16.20;83.00;;;;;;4128139;28;19918;-84
2023/09/08 04:22:47;;;;;;;;;;;16.30;83.00;;;;;;4123034;28;19975;-85
2023/09/08 04:24:48;;;;;;;;;;;16.20;83.00;;;;;;4121943;28;19918;-86
2023/09/08 04:26:48;;;;;;;;;;;16.20;83.10;;;;;;4127606;28;19985;-85
2023/09/08 04:28:51;;;;;;;;;;;16.30;83.20;;;;;;4104476;28;20681;-84
2023/09/08 04:30:51;;;;;;;;;;;16.30;83.10;;;;;;4118966;28;19972;-83
2023/09/08 04:32:52;;;;;;;;;;;16.30;83.20;;;;;;4119862;28;20032;-85
2023/09/08 04:34:53;;;;;;;;;;;16.30;83.20;;;;;;4123890;28;19922;-83
2023/09/08 04:36:53;;;;;;;;;;;16.30;83.20;;;;;;4117527;28;19925;-84
2023/09/08 04:38:54;;;;;;;;;;;16.20;83.20;;;;;;4124710;28;20035;-85
2023/09/08 04:40:54;;;;;;;;;;;16.20;83.90;;;;;;4122530;28;19925;-84
2023/09/08 04:42:55;;;;;;;;;;;16.30;83.20;;;;;;4124192;28;19999;-85
2023/09/08 04:44:56;;;;;;;;;;;16.20;83.20;;;;;;4110100;28;19940;-85
2023/09/08 04:46:56;;;;;;;;;;;16.20;83.20;;;;;;4110309;28;19953;-84
2023/09/08 04:48:57;;;;;;;;;;;16.20;83.20;;;;;;4122100;28;20191;-83
2023/09/08 04:50:57;;;;;;;;;;;16.30;83.30;;;;;;4124312;28;19997;-85
2023/09/08 04:52:58;;;;;;;;;;;16.20;83.30;;;;;;4117254;28;19929;-84
2023/09/08 04:54:59;;;;;;;;;;;16.30;83.40;;;;;;4123372;28;19926;-84
2023/09/08 04:56:59;;;;;;;;;;;16.20;83.40;;;;;;4107768;28;19973;-84
2023/09/08 04:59:02;;;;;;;;;;;16.30;83.50;;;;;;4124844;28;19918;-84
2023/09/08 05:01:02;;;;;;;;;;;16.20;83.40;;;;;;4105128;28;20415;-84
2023/09/08 05:03:03;;;;;;;;;;;16.30;83.50;;;;;;4121456;28;19918;-85
2023/09/08 05:05:07;;;;;;;;;;;16.20;83.50;;;;;;4115126;28;19943;-85
2023/09/08 05:07:07;;;;;;;;;;;16.20;83.50;;;;;;4121634;28;19996;-85
2023/09/08 05:09:08;;;;;;;;;;;16.30;83.80;;;;;;4121699;28;19957;-85
2023/09/08 05:11:09;;;;;;;;;;;16.20;83.80;;;;;;4117986;28;19922;-85
2023/09/08 05:13:30;;;;;;;;;;;16.30;83.90;;;;;;4122424;28;20218;-84
2023/09/08 05:15:38;;;;;;;;;;;16.30;83.90;;;;;;4109760;28;19945;-85
2023/09/08 05:17:39;;;;;;;;;;;16.30;83.90;;;;;;4120777;28;20024;-85
2023/09/08 05:19:40;;;;;;;;;;;16.30;83.90;;;;;;4125209;28;20327;-84
2023/09/08 05:21:41;;;;;;;;;;;16.40;83.90;;;;;;4127822;28;20509;-84
2023/09/08 05:23:42;;;;;;;;;;;16.30;83.80;;;;;;4124698;28;20841;-85
2023/09/08 05:25:43;;;;;;;;;;;16.50;84.00;;;;;;4125263;28;19917;-84
2023/09/08 05:27:45;;;;;;;;;;;16.50;84.00;;;;;;4123368;28;19929;-85
2023/09/08 05:29:47;;;;;;;;;;;16.50;84.20;;;;;;4122736;28;19925;-84
2023/09/08 05:31:48;;;;;;;;;;;16.40;85.10;;;;;;4125638;28;21261;-85
2023/09/08 05:33:49;;;;;;;;;;;16.50;85.30;;;;;;4121876;28;19922;-84
2023/09/08 05:35:49;;;;;;;;;;;16.50;85.80;;;;;;4125422;28;19914;-84
2023/09/08 05:37:50;;;;;;;;;;;16.50;85.50;;;;;;4128776;28;19918;-84
2023/09/08 05:39:51;;;;;;;;;;;16.60;85.80;;;;;;4126184;28;19952;-84
2023/09/08 05:41:51;;;;;;;;;;;16.60;85.60;;;;;;4126414;28;20142;-85
2023/09/08 05:43:52;;;;;;;;;;;16.60;85.50;;;;;;4125484;28;19917;-84
2023/09/08 05:45:53;;;;;;;;;;;16.70;85.60;;;;;;4123184;28;19914;-84
2023/09/08 05:47:55;;;;;;;;;;;16.70;85.30;;;;;;4124564;28;20573;-84
2023/09/08 05:49:56;;;;;;;;;;;16.70;85.30;;;;;;4111430;28;19926;-84
2023/09/08 05:51:57;;;;;;;;;;;16.80;85.20;;;;;;4123403;28;19957;-85
2023/09/08 05:54:03;;;;;;;;;;;16.80;85.10;;;;;;4123004;28;19968;-85
2023/09/08 05:56:26;;;;;;;;;;;16.80;85.70;;;;;;4120069;28;19918;-84
2023/09/08 05:58:47;;;;;;;;;;;16.90;85.10;;;;;;4121953;28;19926;-86
2023/09/08 06:00:47;;;;;;;;;;;16.90;85.00;;;;;;4133289;28;19922;-85
2023/09/08 06:03:08;;;;;;;;;;;17.00;85.10;;;;;;4125542;28;19914;-85
2023/09/08 06:05:29;;;;;;;;;;;17.00;85.30;;;;;;4129000;28;19927;-86
2023/09/08 06:07:49;;;;;;;;;;;17.00;85.30;;;;;;4143046;28;19921;-85
2023/09/08 06:10:10;;;;;;;;;;;17.10;85.40;;;;;;4127644;28;20315;-85
2023/09/08 06:12:30;;;;;;;;;;;17.20;85.50;;;;;;4124458;28;19929;-86
2023/09/08 06:14:51;;;;;;;;;;;17.20;86.00;;;;;;4131028;28;19913;-85
2023/09/08 06:17:11;;;;;;;;;;;17.20;86.40;;;;;;4126187;28;19921;-85
2023/09/08 06:19:32;;;;;;;;;;;17.30;87.00;;;;;;4130888;28;19965;-85
2023/09/08 06:21:53;;;;;;;;;;;17.40;88.20;;;;;;4147920;28;19934;-85
2023/09/08 06:24:13;;;;;;;;;;;17.40;87.60;;;;;;4142110;28;19996;-85
2023/09/08 06:26:14;;;;;;;;;;;17.60;87.90;;;;;;4114348;28;19926;-85
2023/09/08 06:28:15;;;;;;;;;;;17.60;88.00;;;;;;4129147;28;20272;-85
2023/09/08 06:30:16;;;;;;;;;;;17.70;87.70;;;;;;4135358;28;19922;-86
2023/09/08 06:32:17;;;;;;;;;;;17.70;88.00;;;;;;4148071;28;19913;-85
2023/09/08 06:34:21;;;;;;;;;;;17.70;88.10;;;;;;4130446;28;19952;-85
2023/09/08 06:36:22;;;;;;;;;;;17.80;88.50;;;;;;4132123;28;19913;-85
2023/09/08 06:38:22;;;;;;;;;;;17.80;88.50;;;;;;4132997;28;19964;-85
2023/09/08 06:40:23;;;;;;;;;;;17.90;88.20;;;;;;4137591;28;19930;-86
2023/09/08 06:42:23;;;;;;;;;;;18.00;88.30;;;;;;4150573;28;19921;-85
2023/09/08 06:44:25;;;;;;;;;;;18.00;88.00;;;;;;4153890;28;19921;-86
2023/09/08 06:46:26;;;;;;;;;;;18.10;87.80;;;;;;4146574;28;19921;-85
2023/09/08 06:48:26;;;;;;;;;;;18.20;88.10;;;;;;4132958;28;19953;-85
2023/09/08 06:50:29;;;;;;;;;;;18.20;87.90;;;;;;4143029;28;19937;-85
2023/09/08 06:52:29;;;;;;;;;;;18.30;87.80;;;;;;4130592;28;19921;-84
2023/09/08 06:54:30;;;;;;;;;;;18.40;87.50;;;;;;4126004;28;19925;-87
2023/09/08 06:56:30;;;;;;;;;;;18.40;87.90;;;;;;4126247;28;20020;-85
2023/09/08 06:58:31;;;;;;;;;;;18.50;88.70;;;;;;4127483;28;19925;-85
2023/09/08 07:00:54;;;;;;;;;;;18.50;88.60;;;;;;4122849;28;19996;-84
2023/09/08 07:02:54;;;;;;;;;;;18.60;88.20;;;;;;4128033;28;20415;-85
2023/09/08 07:05:15;;;;;;;;;;;18.70;88.00;;;;;;4126975;28;19918;-85
2023/09/08 07:07:36;;;;;;;;;;;18.70;88.00;;;;;;4128201;28;19976;-85
2023/09/08 07:09:47;;;;;;;;;;;18.80;87.90;;;;;;4129879;28;20216;-83
2023/09/08 07:12:07;;;;;;;;;;;18.90;88.20;;;;;;4129073;28;19914;-85
2023/09/08 07:14:28;;;;;;;;;;;19.00;88.10;;;;;;4126255;28;19997;-85
2023/09/08 07:16:49;;;;;;;;;;;19.00;88.10;;;;;;4124986;28;21346;-85
2023/09/08 07:18:49;;;;;;;;;;;19.10;88.00;;;;;;4126773;28;19928;-84
2023/09/08 07:21:10;;;;;;;;;;;19.20;88.20;;;;;;4124416;28;19921;-85
2023/09/08 07:23:30;;;;;;;;;;;19.20;87.70;;;;;;4125437;28;19918;-87
2023/09/08 07:25:51;;;;;;;;;;;19.30;87.70;;;;;;4127003;28;19925;-85
2023/09/08 07:28:12;;;;;;;;;;;19.40;87.90;;;;;;4126027;28;19920;-85
2023/09/08 07:30:33;;;;;;;;;;;19.50;88.00;;;;;;4127292;28;20018;-85
2023/09/08 07:32:53;;;;;;;;;;;19.60;88.00;;;;;;4123324;28;19996;-85
2023/09/08 07:35:16;;;;;;;;;;;19.70;87.60;;;;;;4121653;28;19952;-85
2023/09/08 07:37:37;;;;;;;;;;;19.70;87.40;;;;;;4125914;28;19917;-86
2023/09/08 07:39:57;;;;;;;;;;;19.80;87.90;;;;;;4127486;28;19918;-86
2023/09/08 07:42:18;;;;;;;;;;;19.80;87.80;;;;;;4127362;28;20009;-85
2023/09/08 07:44:39;;;;;;;;;;;19.90;87.60;;;;;;4126332;28;19996;-84
2023/09/08 07:46:40;;;;;;;;;;;20.00;87.50;;;;;;4125193;28;19913;-85
2023/09/08 07:48:40;;;;;;;;;;;20.10;87.40;;;;;;4129689;28;20016;-85
2023/09/08 07:50:41;;;;;;;;;;;20.20;87.50;;;;;;4110576;28;19958;-84
2023/09/08 07:52:42;;;;;;;;;;;20.30;87.30;;;;;;4129798;28;20323;-85
2023/09/08 07:54:43;;;;;;;;;;;20.30;87.10;;;;;;4126737;28;20001;-85
2023/09/08 07:56:43;;;;;;;;;;;20.40;86.80;;;;;;4120861;28;19921;-85
2023/09/08 07:58:44;;;;;;;;;;;20.40;86.00;;;;;;4126492;28;19918;-86
2023/09/08 08:00:44;;;;;;;;;;;20.40;84.90;;;;;;4125303;28;19914;-86
2023/09/08 08:02:49;;;;;;;;;;;20.50;84.00;;;;;;4128489;28;19972;-85
2023/09/08 08:04:49;;;;;;;;;;;20.60;82.00;;;;;;4125268;28;19922;-84
2023/09/08 08:06:50;;;;;;;;;;;20.60;82.50;;;;;;4123115;28;19972;-85
2023/09/08 08:08:54;;;;;;;;;;;20.60;79.70;;;;;;4109901;28;19921;-84
2023/09/08 08:10:55;;;;;;;;;;;20.70;80.00;;;;;;4126173;28;19910;-85
2023/09/08 08:12:55;;;;;;;;;;;20.80;78.40;;;;;;4129912;28;20012;-84
2023/09/08 08:14:56;;;;;;;;;;;20.80;78.30;;;;;;4126196;28;19960;-86
2023/09/08 08:16:57;;;;;;;;;;;20.90;78.60;;;;;;4128189;28;19918;-86
2023/09/08 08:18:58;;;;;;;;;;;20.90;78.10;;;;;;4127343;28;19953;-85
2023/09/08 08:21:00;;;;;;;;;;;21.00;79.10;;;;;;4145396;28;19921;-86
2023/09/08 08:23:04;;;;;;;;;;;21.10;79.70;;;;;;4128046;28;19914;-85
2023/09/08 08:25:05;;;;;;;;;;;21.20;79.40;;;;;;4130618;28;20376;-84
2023/09/08 08:27:05;;;;;;;;;;;21.20;79.40;;;;;;4130374;28;19914;-86
2023/09/08 08:29:06;;;;;;;;;;;21.30;76.60;;;;;;4128159;28;19922;-85
2023/09/08 08:31:07;;;;;;;;;;;21.30;75.70;;;;;;4126244;28;20005;-83
2023/09/08 08:33:08;;;;;;;;;;;21.30;73.20;;;;;;4128404;28;19921;-85
2023/09/08 08:35:09;;;;;;;;;;;21.40;74.40;;;;;;4126403;28;19948;-85
2023/09/08 08:37:10;;;;;;;;;;;21.50;75.90;;;;;;4125471;28;20004;-85
2023/09/08 08:39:11;;;;;;;;;;;21.60;76.20;;;;;;4126692;28;19925;-84
2023/09/08 08:41:11;;;;;;;;;;;21.60;75.70;;;;;;4126762;28;19914;-85
2023/09/08 08:43:12;;;;;;;;;;;21.70;75.20;;;;;;4129289;28;19918;-85
2023/09/08 08:45:14;;;;;;;;;;;21.80;76.90;;;;;;4123501;28;19913;-84
2023/09/08 08:47:15;;;;;;;;;;;21.80;76.00;;;;;;4126177;28;19921;-85
2023/09/08 08:49:16;;;;;;;;;;;22.00;76.60;;;;;;4116210;28;19938;-84
2023/09/08 08:51:18;;;;;;;;;;;22.00;76.60;;;;;;4109661;28;19926;-83
2023/09/08 08:53:20;;;;;;;;;;;22.00;69.90;;;;;;4126119;28;19920;-84
2023/09/08 08:55:23;;;;;;;;;;;21.90;70.90;;;;;;4132483;28;19910;-84
2023/09/08 08:57:26;;;;;;;;;;;22.10;72.40;;;;;;4127633;28;19921;-84
2023/09/08 08:59:27;;;;;;;;;;;22.10;72.40;;;;;;4127503;28;19946;-84
2023/09/08 09:01:28;;;;;;;;;;;22.20;72.80;;;;;;4131952;28;19921;-83
2023/09/08 09:03:31;;;;;;;;;;;22.30;73.30;;;;;;4119987;28;20064;-85
2023/09/08 09:05:40;;;;;;;;;;;22.40;73.50;;;;;;4132072;28;20041;-83
2023/09/08 09:08:03;;;;;;;;;;;22.40;73.80;;;;;;4110985;28;19925;-84
2023/09/08 09:10:23;;;;;;;;;;;22.50;71.50;;;;;;4135466;28;19976;-83
2023/09/08 09:12:41;;;;;;;;;;;22.50;72.60;;;;;;4126236;28;19910;-83
2023/09/08 09:14:52;;;;;;;;;;;22.60;70.90;;;;;;4130217;28;19914;-84
2023/09/08 09:17:13;;;;;;;;;;;22.70;72.00;;;;;;4127471;28;19956;-83
2023/09/08 09:19:35;;;;;;;;;;;22.70;68.20;;;;;;4128867;28;19953;-84
2023/09/08 09:21:57;;;;;;;;;;;22.80;69.50;;;;;;4128685;28;19936;-83
2023/09/08 09:24:27;;;;;;;;;;;22.90;70.00;;;;;;4126410;28;19918;-84
2023/09/08 09:26:51;;;;;;;;;;;23.00;68.70;;;;;;4131874;28;20017;-84
2023/09/08 09:29:13;;;;;;;;;;;23.10;68.20;;;;;;4126132;28;19924;-85
2023/09/08 09:31:33;;;;;;;;;;;23.00;64.30;;;;;;4146227;28;19922;-86
2023/09/08 09:34:01;;;;;;;;;;;23.10;64.80;;;;;;4151792;28;19918;-84
2023/09/08 09:36:01;;;;;;;;;;;23.10;64.70;;;;;;4132794;28;19918;-83
2023/09/08 09:38:02;;;;;;;;;;;23.20;66.40;;;;;;4127527;28;19968;-84
2023/09/08 09:40:07;;;;;;;;;;;23.20;65.00;;;;;;4129534;28;20390;-84
2023/09/08 09:42:07;;;;;;;;;;;23.30;65.50;;;;;;4129256;28;19972;-82
2023/09/08 09:44:09;;;;;;;;;;;23.30;63.20;;;;;;4131049;28;20000;-84
2023/09/08 09:46:10;;;;;;;;;;;23.30;62.70;;;;;;4111335;28;19914;-84
2023/09/08 09:48:11;;;;;;;;;;;23.30;62.60;;;;;;4127303;28;20624;-82
2023/09/08 09:50:12;;;;;;;;;;;23.40;64.70;;;;;;4128681;28;19917;-86
2023/09/08 09:52:13;;;;;;;;;;;23.50;65.00;;;;;;4111762;28;20496;-83
2023/09/08 09:54:15;;;;;;;;;;;23.50;64.60;;;;;;4122744;28;19919;-84
2023/09/08 09:56:19;;;;;;;;;;;23.50;61.90;;;;;;4123829;28;20406;-85
2023/09/08 09:58:21;;;;;;;;;;;23.60;61.30;;;;;;4124284;28;19922;-85
2023/09/08 10:00:22;;;;;;;;;;;23.50;61.80;;;;;;4125792;28;19924;-87
2023/09/08 10:02:24;;;;;;;;;;;23.60;61.90;;;;;;4133755;28;19925;-83
2023/09/08 10:04:34;;;;;;;;;;;23.60;61.10;;;;;;4132212;28;20004;-84
2023/09/08 10:06:57;;;;;;;;;;;23.60;62.90;;;;;;4129826;28;19929;-85
2023/09/08 10:09:13;;;;;;;;;;;23.70;62.10;;;;;;4110700;28;19925;-83
2023/09/08 10:11:43;;;;;;;;;;;23.70;62.30;;;;;;4132675;28;19928;-85
2023/09/08 10:14:04;;;;;;;;;;;23.80;63.50;;;;;;4124297;28;19917;-84
2023/09/08 10:16:26;;;;;;;;;;;23.90;64.30;;;;;;4128950;28;19945;-84
2023/09/08 10:18:47;;;;;;;;;;;23.90;65.10;;;;;;4128422;28;19922;-84
2023/09/08 10:21:08;;;;;;;;;;;24.00;65.60;;;;;;4135828;28;19913;-85
2023/09/08 10:23:37;;;;;;;;;;;24.10;65.50;;;;;;4124673;28;19944;-85
2023/09/08 10:26:03;;;;;;;;;;;24.10;60.50;;;;;;4137049;28;20451;-84
2023/09/08 10:28:04;;;;;;;;;;;24.20;61.90;;;;;;4125921;28;20367;-87
2023/09/08 10:30:06;;;;;;;;;;;24.20;59.80;;;;;;4110678;28;19918;-86
2023/09/08 10:32:07;;;;;;;;;;;24.20;60.70;;;;;;4127175;28;19922;-84
2023/09/08 10:34:11;;;;;;;;;;;24.30;61.60;;;;;;4123803;28;19917;-85
2023/09/08 10:36:12;;;;;;;;;;;24.30;61.90;;;;;;4121810;28;20035;-85
2023/09/08 10:38:26;;;;;;;;;;;24.40;60.70;;;;;;4124683;28;19937;-86
2023/09/08 10:40:29;;;;;;;;;;;24.30;58.40;;;;;;4125639;28;20370;-84
2023/09/08 10:42:30;;;;;;;;;;;24.40;59.60;;;;;;4127358;28;19913;-84
2023/09/08 10:44:32;;;;;;;;;;;24.50;61.10;;;;;;4124332;28;19913;-85
2023/09/08 10:46:34;;;;;;;;;;;24.50;62.00;;;;;;4108572;28;20014;-85
2023/09/08 10:48:44;;;;;;;;;;;24.60;63.00;;;;;;4126571;28;19984;-83
2023/09/08 10:50:45;;;;;;;;;;;24.60;59.90;;;;;;4124640;28;20383;-84
2023/09/08 10:53:03;;;;;;;;;;;24.60;60.90;;;;;;4133496;28;20060;-85
2023/09/08 10:55:06;;;;;;;;;;;24.70;60.20;;;;;;4124457;28;20350;-85
2023/09/08 10:57:27;;;;;;;;;;;24.70;61.30;;;;;;4129346;28;19925;-86
2023/09/08 10:59:37;;;;;;;;;;;24.80;59.10;;;;;;4134447;28;19954;-85
2023/09/08 11:02:02;;;;;;;;;;;24.80;61.30;;;;;;4131881;28;19913;-86
2023/09/08 11:04:23;;;;;;;;;;;24.80;60.00;;;;;;4130257;28;19914;-85
2023/09/08 11:06:46;;;;;;;;;;;24.80;60.30;;;;;;4125184;28;21285;-84
2023/09/08 11:09:07;;;;;;;;;;;24.90;61.00;;;;;;4135537;28;19918;-86
2023/09/08 11:11:33;;;;;;;;;;;25.00;59.80;;;;;;4144147;28;19953;-85
2023/09/08 11:13:53;;;;;;;;;;;25.00;59.10;;;;;;4149683;28;19914;-87
2023/09/08 11:16:15;;;;;;;;;;;25.00;58.70;;;;;;4149093;28;19905;-84
2023/09/08 11:18:36;;;;;;;;;;;25.00;59.40;;;;;;4148748;28;20036;-84
2023/09/08 11:21:00;;;;;;;;;;;25.00;58.90;;;;;;4146258;28;19913;-87
2023/09/08 11:23:21;;;;;;;;;;;25.10;59.40;;;;;;4144711;28;19932;-86
2023/09/08 11:25:41;;;;;;;;;;;25.10;59.90;;;;;;4144426;28;19916;-85
2023/09/08 11:28:02;;;;;;;;;;;25.10;59.70;;;;;;4135473;28;19925;-86
2023/09/08 11:30:24;;;;;;;;;;;25.20;58.90;;;;;;4136118;28;20380;-84
2023/09/08 11:32:45;;;;;;;;;;;25.20;59.80;;;;;;4130828;28;20032;-85
2023/09/08 11:35:09;;;;;;;;;;;25.20;56.90;;;;;;4127833;28;20295;-85
2023/09/08 11:37:31;;;;;;;;;;;25.20;57.60;;;;;;4121252;28;19968;-85
2023/09/08 11:39:52;;;;;;;;;;;25.20;59.00;;;;;;4126563;28;20272;-85
2023/09/08 11:42:14;;;;;;;;;;;25.30;56.80;;;;;;4130445;28;19918;-85
2023/09/08 11:44:35;;;;;;;;;;;25.30;56.40;;;;;;4132908;28;20355;-85
2023/09/08 11:46:57;;;;;;;;;;;25.30;58.50;;;;;;4133251;28;19913;-85
2023/09/08 11:49:22;;;;;;;;;;;25.40;58.60;;;;;;4130436;28;20546;-85
2023/09/08 11:51:44;;;;;;;;;;;25.40;58.80;;;;;;4132768;28;20552;-83
2023/09/08 11:54:04;;;;;;;;;;;25.40;57.30;;;;;;4127247;28;20298;-86
2023/09/08 11:56:05;;;;;;;;;;;25.50;58.90;;;;;;4128674;28;19918;-86
2023/09/08 11:58:06;;;;;;;;;;;25.50;58.90;;;;;;4128337;28;20379;-86
2023/09/08 12:00:09;;;;;;;;;;;25.60;59.00;;;;;;4130963;28;19964;-85
2023/09/08 12:02:10;;;;;;;;;;;25.60;59.20;;;;;;4130663;28;20462;-84
2023/09/08 12:04:20;;;;;;;;;;;25.60;59.70;;;;;;4139746;28;19917;-85
2023/09/08 12:06:25;;;;;;;;;;;25.60;57.70;;;;;;4127583;28;19921;-86
2023/09/08 12:08:28;;;;;;;;;;;25.60;56.30;;;;;;4135888;28;20403;-87
2023/09/08 12:10:49;;;;;;;;;;;25.60;58.10;;;;;;4125291;28;20311;-89
2023/09/08 12:13:10;;;;;;;;;;;25.70;58.00;;;;;;4127990;28;21024;-86
2023/09/08 12:15:34;;;;;;;;;;;25.80;59.30;;;;;;4128232;28;20320;-87
2023/09/08 12:17:54;;;;;;;;;;;25.80;58.30;;;;;;4124242;28;19918;-87
2023/09/08 12:20:15;;;;;;;;;;;25.90;57.50;;;;;;4128310;28;20327;-88
2023/09/08 12:22:36;;;;;;;;;;;25.80;54.90;;;;;;4136414;28;20330;-87
2023/09/08 12:24:57;;;;;;;;;;;25.90;55.10;;;;;;4135330;28;20393;-86
2023/09/08 12:27:18;;;;;;;;;;;25.90;55.30;;;;;;4125289;28;20544;-86